createdAt,value
2022-12-20T00:00:57.940Z,70.53
2022-12-20T00:02:03.994Z,70.94
2022-12-20T00:03:07.466Z,70.88
2022-12-20T00:04:15.702Z,70.90
2022-12-20T00:05:19.942Z,71.05
2022-12-20T00:06:27.614Z,70.96
2022-12-20T00:07:31.101Z,71.37
2022-12-20T00:08:38.333Z,71.47
2022-12-20T00:09:41.764Z,71.51
2022-12-20T00:10:51.207Z,71.41
2022-12-20T00:11:54.769Z,71.45
2022-12-20T00:13:00.807Z,71.50
2022-12-20T00:14:04.266Z,71.25
2022-12-20T00:15:11.391Z,71.40
2022-12-20T00:16:19.454Z,71.20
2022-12-20T00:17:25.795Z,71.21
2022-12-20T00:18:29.240Z,71.53
2022-12-20T00:19:35.233Z,71.21
2022-12-20T00:20:38.748Z,71.39
2022-12-20T00:21:45.503Z,71.25
2022-12-20T00:22:49.597Z,71.28
2022-12-20T00:24:01.573Z,71.36
2022-12-20T00:25:05.989Z,71.22
2022-12-20T00:26:17.559Z,71.42
2022-12-20T00:27:22.383Z,71.31
2022-12-20T00:28:28.491Z,71.31
2022-12-20T00:29:35.403Z,71.30
2022-12-20T00:30:38.792Z,71.57
2022-12-20T00:31:44.996Z,71.45
2022-12-20T00:32:49.317Z,71.54
2022-12-20T00:33:58.742Z,71.61
2022-12-20T00:35:02.000Z,71.36
2022-12-20T00:36:09.790Z,71.32
2022-12-20T00:37:13.153Z,71.14
2022-12-20T00:38:20.197Z,71.08
2022-12-20T00:39:23.380Z,71.01
2022-12-20T00:40:29.384Z,71.26
2022-12-20T00:41:36.450Z,71.47
2022-12-20T00:42:42.390Z,71.13
2022-12-20T00:43:47.556Z,71.52
2022-12-20T00:44:53.534Z,71.51
2022-12-20T00:45:57.332Z,71.43
2022-12-20T00:47:03.365Z,71.29
2022-12-20T00:48:07.283Z,71.70
2022-12-20T00:49:14.448Z,72.19
2022-12-20T00:50:18.051Z,72.05
2022-12-20T00:51:27.679Z,72.28
2022-12-20T00:52:31.178Z,72.42
2022-12-20T00:53:38.038Z,72.55
2022-12-20T00:54:42.456Z,72.52
2022-12-20T00:55:50.301Z,72.94
2022-12-20T00:56:58.757Z,72.89
2022-12-20T00:58:02.003Z,73.31
2022-12-20T00:59:07.851Z,73.24
2022-12-20T01:00:13.498Z,73.54
2022-12-20T01:01:24.226Z,73.73
2022-12-20T01:02:27.900Z,73.76
2022-12-20T01:03:34.117Z,73.67
2022-12-20T01:04:38.631Z,73.63
2022-12-20T01:05:54.770Z,73.46
2022-12-20T01:06:58.611Z,74.00
2022-12-20T01:08:04.950Z,73.90
2022-12-20T01:09:08.291Z,73.66
2022-12-20T01:10:15.221Z,73.71
2022-12-20T01:11:23.097Z,73.45
2022-12-20T01:12:31.540Z,73.28
2022-12-20T01:13:39.045Z,73.23
2022-12-20T01:14:45.369Z,72.91
2022-12-20T01:15:49.986Z,73.07
2022-12-20T01:16:57.315Z,73.43
2022-12-20T01:18:01.074Z,73.31
2022-12-20T01:19:08.081Z,73.23
2022-12-20T01:20:12.727Z,73.15
2022-12-20T01:21:22.042Z,73.08
2022-12-20T01:22:26.239Z,73.08
2022-12-20T01:23:32.746Z,73.40
2022-12-20T01:24:38.634Z,73.33
2022-12-20T01:25:41.902Z,73.26
2022-12-20T01:26:49.325Z,73.29
2022-12-20T01:27:57.952Z,73.04
2022-12-20T01:29:04.321Z,73.16
2022-12-20T01:30:10.468Z,72.92
2022-12-20T01:31:20.408Z,73.03
2022-12-20T01:32:23.788Z,72.70
2022-12-20T01:33:30.801Z,72.74
2022-12-20T01:34:34.235Z,72.93
2022-12-20T01:35:40.166Z,73.02
2022-12-20T01:36:43.519Z,73.02
2022-12-20T01:37:49.614Z,73.03
2022-12-20T01:38:58.479Z,73.26
2022-12-20T01:40:04.445Z,73.21
2022-12-20T01:41:08.621Z,73.36
2022-12-20T01:42:18.020Z,73.17
2022-12-20T01:43:25.714Z,73.40
2022-12-20T01:45:10.850Z,73.36
2022-12-20T01:46:14.349Z,73.36
2022-12-20T01:47:21.545Z,73.54
2022-12-20T01:48:27.739Z,73.67
2022-12-20T01:49:41.630Z,73.47
2022-12-20T01:50:45.528Z,73.75
2022-12-20T01:51:59.441Z,73.82
2022-12-20T01:53:06.051Z,74.16
2022-12-20T01:54:22.208Z,74.22
2022-12-20T01:55:30.746Z,74.31
2022-12-20T01:56:39.320Z,74.12
2022-12-20T01:57:52.061Z,74.12
2022-12-20T01:59:03.851Z,74.26
2022-12-20T02:00:10.099Z,74.56
2022-12-20T02:01:23.453Z,74.73
2022-12-20T02:02:28.189Z,74.91
2022-12-20T02:03:35.970Z,75.02
2022-12-20T02:04:39.818Z,75.00
2022-12-20T02:05:49.788Z,75.38
2022-12-20T02:06:54.554Z,75.13
2022-12-20T02:08:01.236Z,75.27
2022-12-20T02:09:08.702Z,75.27
2022-12-20T02:10:16.655Z,75.35
2022-12-20T02:12:03.989Z,75.11
2022-12-20T02:13:35.406Z,75.16
2022-12-20T02:15:09.820Z,75.06
2022-12-20T02:16:25.230Z,75.01
2022-12-20T02:17:53.392Z,74.94
2022-12-20T02:19:18.008Z,75.34
2022-12-20T02:21:01.319Z,75.11
2022-12-20T02:22:26.531Z,75.20
2022-12-20T02:24:04.864Z,75.21
2022-12-20T02:25:49.562Z,75.22
2022-12-20T02:27:46.509Z,75.14
2022-12-20T02:29:23.896Z,75.19
2022-12-20T02:30:47.464Z,74.76
2022-12-20T02:32:05.369Z,74.52
2022-12-20T02:33:17.524Z,74.76
2022-12-20T02:34:26.302Z,74.77
2022-12-20T02:35:36.322Z,74.66
2022-12-20T02:36:40.255Z,74.47
2022-12-20T02:38:00.830Z,74.47
2022-12-20T02:39:05.132Z,74.63
2022-12-20T02:40:13.570Z,74.50
2022-12-20T02:41:25.918Z,74.36
2022-12-20T02:42:36.955Z,74.44
2022-12-20T02:44:01.405Z,74.06
2022-12-20T02:45:18.384Z,74.24
2022-12-20T02:46:31.008Z,74.37
2022-12-20T02:47:43.104Z,74.00
2022-12-20T02:48:54.929Z,74.36
2022-12-20T02:49:59.072Z,74.36
2022-12-20T02:51:11.736Z,74.42
2022-12-20T02:52:18.333Z,74.41
2022-12-20T02:53:26.627Z,74.58
2022-12-20T02:54:31.233Z,74.63
2022-12-20T02:55:51.097Z,74.71
2022-12-20T02:57:06.679Z,74.46
2022-12-20T02:58:29.504Z,74.47
2022-12-20T02:59:45.576Z,74.33
2022-12-20T03:00:59.701Z,74.63
2022-12-20T03:02:09.034Z,74.52
2022-12-20T03:03:25.231Z,74.70
2022-12-20T03:04:38.161Z,74.83
2022-12-20T03:05:48.090Z,75.04
2022-12-20T03:07:05.143Z,74.89
2022-12-20T03:08:09.532Z,75.15
2022-12-20T03:09:15.431Z,75.26
2022-12-20T03:10:20.677Z,75.28
2022-12-20T03:11:26.823Z,75.03
2022-12-20T03:12:30.251Z,75.07
2022-12-20T03:13:37.022Z,75.08
2022-12-20T03:14:44.750Z,75.05
2022-12-20T03:15:53.086Z,75.22
2022-12-20T03:16:56.691Z,75.11
2022-12-20T03:18:05.457Z,75.08
2022-12-20T03:19:09.659Z,74.85
2022-12-20T03:20:16.322Z,75.04
2022-12-20T03:21:19.934Z,75.34
2022-12-20T03:22:26.280Z,75.27
2022-12-20T03:23:29.684Z,75.15
2022-12-20T03:24:36.845Z,74.85
2022-12-20T03:25:44.905Z,74.96
2022-12-20T03:26:57.259Z,74.84
2022-12-20T03:28:01.536Z,74.71
2022-12-20T03:29:08.557Z,74.65
2022-12-20T03:30:15.330Z,74.60
2022-12-20T03:31:21.503Z,74.62
2022-12-20T03:32:28.539Z,74.72
2022-12-20T03:33:37.491Z,74.68
2022-12-20T03:34:43.472Z,74.67
2022-12-20T03:35:52.186Z,74.70
2022-12-20T03:36:55.607Z,74.74
2022-12-20T03:38:01.543Z,74.45
2022-12-20T03:39:05.577Z,74.46
2022-12-20T03:40:17.360Z,73.92
2022-12-20T03:41:23.999Z,73.86
2022-12-20T03:42:32.096Z,74.29
2022-12-20T03:43:35.530Z,74.33
2022-12-20T03:44:41.798Z,74.13
2022-12-20T03:45:46.043Z,73.86
2022-12-20T03:46:52.738Z,73.93
2022-12-20T03:47:57.430Z,74.17
2022-12-20T03:49:08.900Z,74.48
2022-12-20T03:50:20.244Z,74.15
2022-12-20T03:51:26.243Z,74.20
2022-12-20T03:52:30.378Z,74.10
2022-12-20T03:53:36.702Z,74.31
2022-12-20T03:54:40.326Z,74.25
2022-12-20T03:55:53.103Z,73.86
2022-12-20T03:56:56.576Z,74.19
2022-12-20T03:58:03.457Z,73.59
2022-12-20T03:59:12.449Z,73.91
2022-12-20T04:00:20.869Z,73.89
2022-12-20T04:01:36.805Z,73.84
2022-12-20T04:02:40.816Z,74.10
2022-12-20T04:03:49.593Z,73.95
2022-12-20T04:04:58.330Z,74.12
2022-12-20T04:06:02.092Z,73.83
2022-12-20T04:07:08.026Z,73.85
2022-12-20T04:08:13.459Z,73.71
2022-12-20T04:09:20.309Z,74.00
2022-12-20T04:10:28.771Z,73.96
2022-12-20T04:11:36.175Z,73.78
2022-12-20T04:12:44.193Z,73.84
2022-12-20T04:13:55.966Z,74.29
2022-12-20T04:15:00.638Z,74.22
2022-12-20T04:16:08.949Z,73.97
2022-12-20T04:17:12.273Z,74.24
2022-12-20T04:18:20.201Z,74.14
2022-12-20T04:19:27.019Z,74.19
2022-12-20T04:20:33.988Z,74.28
2022-12-20T04:22:02.670Z,74.34
2022-12-20T04:23:16.398Z,74.26
2022-12-20T04:24:23.687Z,74.10
2022-12-20T04:25:47.061Z,74.52
2022-12-20T04:26:55.345Z,74.51
2022-12-20T04:27:58.729Z,74.57
2022-12-20T04:29:04.929Z,74.54
2022-12-20T04:30:11.962Z,74.23
2022-12-20T04:31:23.779Z,74.35
2022-12-20T04:32:28.845Z,74.57
2022-12-20T04:33:35.609Z,74.67
2022-12-20T04:34:39.016Z,74.75
2022-12-20T04:35:47.697Z,74.96
2022-12-20T04:36:51.921Z,74.82
2022-12-20T04:38:07.926Z,74.90
2022-12-20T04:39:11.231Z,74.83
2022-12-20T04:40:27.721Z,74.69
2022-12-20T04:41:36.804Z,74.89
2022-12-20T04:42:46.637Z,74.68
2022-12-20T04:43:57.610Z,75.13
2022-12-20T04:45:08.596Z,75.48
2022-12-20T04:46:14.552Z,75.34
2022-12-20T04:47:17.907Z,75.37
2022-12-20T04:49:48.385Z,75.29
2022-12-20T04:50:59.285Z,75.44
2022-12-20T04:52:18.603Z,75.50
2022-12-20T04:53:39.262Z,75.80
2022-12-20T04:54:42.820Z,75.77
2022-12-20T04:55:56.021Z,75.74
2022-12-20T04:57:00.384Z,75.46
2022-12-20T04:58:07.892Z,75.57
2022-12-20T04:59:17.004Z,75.29
2022-12-20T05:00:23.373Z,75.31
2022-12-20T05:01:37.888Z,75.28
2022-12-20T05:02:41.959Z,75.68
2022-12-20T05:03:52.312Z,75.44
2022-12-20T05:04:57.128Z,75.57
2022-12-20T05:06:05.802Z,75.90
2022-12-20T05:07:09.865Z,75.52
2022-12-20T05:08:18.577Z,75.53
2022-12-20T05:09:26.489Z,75.59
2022-12-20T05:10:32.757Z,75.17
2022-12-20T05:11:41.047Z,75.40
2022-12-20T05:12:45.869Z,75.53
2022-12-20T05:14:00.123Z,75.53
2022-12-20T05:15:03.565Z,75.35
2022-12-20T05:16:10.987Z,75.29
2022-12-20T05:17:15.012Z,75.37
2022-12-20T05:18:21.103Z,75.49
2022-12-20T05:19:32.033Z,75.46
2022-12-20T05:20:39.355Z,75.16
2022-12-20T05:22:12.785Z,74.77
2022-12-20T05:23:34.921Z,75.35
2022-12-20T05:25:03.263Z,75.29
2022-12-20T05:26:24.824Z,74.90
2022-12-20T05:27:32.561Z,75.54
2022-12-20T05:28:37.636Z,75.50
2022-12-20T05:29:43.823Z,75.47
2022-12-20T05:30:47.274Z,75.58
2022-12-20T05:31:55.928Z,75.87
2022-12-20T05:33:00.613Z,75.83
2022-12-20T05:34:07.492Z,75.82
2022-12-20T05:35:13.239Z,75.70
2022-12-20T05:36:19.606Z,75.78
2022-12-20T05:37:27.397Z,75.66
2022-12-20T05:38:36.745Z,75.99
2022-12-20T05:39:46.865Z,75.84
2022-12-20T05:40:58.792Z,75.83
2022-12-20T05:42:02.810Z,75.79
2022-12-20T05:43:09.279Z,76.02
2022-12-20T05:44:22.483Z,75.89
2022-12-20T05:45:29.188Z,75.99
2022-12-20T05:46:41.010Z,75.79
2022-12-20T05:47:49.381Z,75.92
2022-12-20T05:48:55.702Z,76.19
2022-12-20T05:50:01.334Z,76.20
2022-12-20T05:51:12.526Z,76.21
2022-12-20T05:52:38.705Z,76.33
2022-12-20T05:53:45.563Z,76.08
2022-12-20T05:54:50.528Z,76.14
2022-12-20T05:55:58.897Z,76.05
2022-12-20T05:57:06.226Z,76.25
2022-12-20T05:58:16.502Z,76.48
2022-12-20T05:59:31.460Z,76.22
2022-12-20T06:00:34.910Z,76.29
2022-12-20T06:01:41.944Z,76.24
2022-12-20T06:02:46.010Z,76.11
2022-12-20T06:03:53.022Z,76.33
2022-12-20T06:04:59.334Z,76.34
2022-12-20T06:06:10.118Z,76.14
2022-12-20T06:07:19.740Z,76.34
2022-12-20T06:08:32.053Z,76.45
2022-12-20T06:09:37.556Z,76.35
2022-12-20T06:10:47.159Z,76.82
2022-12-20T06:11:51.713Z,76.52
2022-12-20T06:12:58.545Z,76.44
2022-12-20T06:14:02.705Z,76.51
2022-12-20T06:15:11.088Z,76.94
2022-12-20T06:16:20.903Z,76.67
2022-12-20T06:17:24.482Z,76.49
2022-12-20T06:18:32.388Z,76.74
2022-12-20T06:19:40.344Z,76.85
2022-12-20T06:20:53.857Z,76.43
2022-12-20T06:22:01.387Z,76.49
2022-12-20T06:23:27.677Z,76.65
2022-12-20T06:24:48.553Z,76.43
2022-12-20T06:25:58.256Z,76.64
2022-12-20T06:27:07.255Z,76.79
2022-12-20T06:28:13.410Z,76.63
2022-12-20T06:29:17.776Z,76.52
2022-12-20T06:30:34.086Z,76.56
2022-12-20T06:31:58.124Z,76.57
2022-12-20T06:33:06.041Z,76.74
2022-12-20T06:34:09.597Z,76.81
2022-12-20T06:35:20.418Z,76.95
2022-12-20T06:36:28.861Z,76.81
2022-12-20T06:37:32.563Z,76.99
2022-12-20T06:38:38.734Z,76.68
2022-12-20T06:39:44.909Z,76.63
2022-12-20T06:40:50.927Z,76.80
2022-12-20T06:41:55.347Z,76.79
2022-12-20T06:43:01.392Z,76.78
2022-12-20T06:44:05.312Z,76.51
2022-12-20T06:45:13.427Z,76.64
2022-12-20T06:46:17.517Z,76.43
2022-12-20T06:47:25.376Z,76.31
2022-12-20T06:48:28.801Z,76.38
2022-12-20T06:49:35.331Z,76.25
2022-12-20T06:50:52.094Z,76.23
2022-12-20T06:52:01.907Z,76.24
2022-12-20T06:53:20.136Z,76.17
2022-12-20T06:54:23.531Z,75.84
2022-12-20T06:55:32.615Z,75.84
2022-12-20T06:56:41.091Z,75.76
2022-12-20T06:57:49.270Z,75.66
2022-12-20T06:58:53.510Z,75.83
2022-12-20T06:59:59.589Z,75.86
2022-12-20T07:01:03.259Z,75.54
2022-12-20T07:02:09.698Z,75.79
2022-12-20T07:03:16.774Z,75.85
2022-12-20T07:04:21.545Z,76.10
2022-12-20T07:05:27.756Z,76.15
2022-12-20T07:06:31.232Z,75.92
2022-12-20T07:07:44.572Z,75.99
2022-12-20T07:08:51.225Z,75.86
2022-12-20T07:09:57.951Z,76.05
2022-12-20T07:11:12.163Z,75.95
2022-12-20T07:12:15.473Z,75.93
2022-12-20T07:13:21.770Z,75.92
2022-12-20T07:14:27.836Z,75.68
2022-12-20T07:15:32.620Z,75.56
2022-12-20T07:16:39.124Z,75.84
2022-12-20T07:17:44.980Z,75.90
2022-12-20T07:18:50.904Z,75.79
2022-12-20T07:19:56.931Z,75.79
2022-12-20T07:21:02.656Z,75.88
2022-12-20T07:22:09.239Z,75.45
2022-12-20T07:23:12.622Z,75.74
2022-12-20T07:24:19.166Z,75.70
2022-12-20T07:25:22.846Z,75.80
2022-12-20T07:26:32.273Z,75.75
2022-12-20T07:27:35.983Z,75.60
2022-12-20T07:28:43.305Z,75.59
2022-12-20T07:29:49.347Z,75.59
2022-12-20T07:30:53.108Z,75.28
2022-12-20T07:32:00.025Z,75.69
2022-12-20T07:33:03.379Z,75.75
2022-12-20T07:34:09.463Z,75.38
2022-12-20T07:35:17.279Z,75.08
2022-12-20T07:36:23.419Z,75.16
2022-12-20T07:37:32.159Z,75.09
2022-12-20T07:38:38.543Z,74.84
2022-12-20T07:39:44.743Z,74.73
2022-12-20T07:40:48.165Z,74.54
2022-12-20T07:42:00.177Z,74.56
2022-12-20T07:43:04.474Z,74.50
2022-12-20T07:44:10.385Z,74.65
2022-12-20T07:45:13.680Z,74.60
2022-12-20T07:46:21.770Z,74.02
2022-12-20T07:47:27.889Z,74.86
2022-12-20T07:48:36.344Z,74.40
2022-12-20T07:49:43.283Z,74.07
2022-12-20T07:50:47.233Z,74.20
2022-12-20T07:52:01.003Z,74.16
2022-12-20T07:53:12.564Z,74.31
2022-12-20T07:54:27.392Z,74.01
2022-12-20T07:55:32.534Z,74.07
2022-12-20T07:56:46.070Z,73.87
2022-12-20T07:58:05.132Z,73.80
2022-12-20T07:59:15.628Z,73.60
2022-12-20T08:00:23.230Z,73.56
2022-12-20T08:01:32.174Z,73.71
2022-12-20T08:02:47.566Z,73.86
2022-12-20T08:04:03.616Z,74.34
2022-12-20T08:05:14.009Z,74.13
2022-12-20T08:06:23.037Z,74.46
2022-12-20T08:07:33.270Z,74.45
2022-12-20T08:08:46.338Z,74.55
2022-12-20T08:09:52.563Z,74.55
2022-12-20T08:10:59.437Z,74.27
2022-12-20T08:12:07.516Z,74.30
2022-12-20T08:13:14.409Z,74.04
2022-12-20T08:14:24.791Z,73.96
2022-12-20T08:15:30.419Z,73.96
2022-12-20T08:16:36.427Z,73.66
2022-12-20T08:17:40.504Z,73.44
2022-12-20T08:18:46.516Z,73.37
2022-12-20T08:19:52.676Z,73.10
2022-12-20T08:20:59.440Z,73.46
2022-12-20T08:22:05.556Z,73.53
2022-12-20T08:23:12.260Z,73.12
2022-12-20T08:24:18.154Z,73.28
2022-12-20T08:25:25.134Z,73.38
2022-12-20T08:26:31.188Z,73.45
2022-12-20T08:27:37.426Z,72.88
2022-12-20T08:28:47.367Z,72.80
2022-12-20T08:29:50.826Z,72.43
2022-12-20T08:30:56.898Z,72.39
2022-12-20T08:32:02.976Z,72.39
2022-12-20T08:33:09.103Z,72.28
2022-12-20T08:34:15.933Z,72.13
2022-12-20T08:35:21.994Z,71.63
2022-12-20T08:36:25.412Z,71.83
2022-12-20T08:37:31.461Z,71.78
2022-12-20T08:38:37.919Z,71.79
2022-12-20T08:39:44.626Z,71.60
2022-12-20T08:40:48.055Z,70.94
2022-12-20T08:41:54.046Z,70.70
2022-12-20T08:42:58.863Z,70.42
2022-12-20T08:44:07.846Z,69.85
2022-12-20T08:45:15.541Z,69.18
2022-12-20T08:46:21.610Z,68.93
2022-12-20T08:47:24.974Z,68.26
2022-12-20T08:48:32.701Z,68.77
2022-12-20T08:49:43.972Z,68.62
2022-12-20T08:51:01.406Z,68.78
2022-12-20T08:52:07.656Z,68.70
2022-12-20T08:53:13.602Z,68.68
2022-12-20T08:54:19.798Z,68.56
2022-12-20T08:55:29.414Z,68.36
2022-12-20T08:56:36.508Z,68.06
2022-12-20T08:57:42.404Z,67.90
2022-12-20T08:58:46.655Z,68.25
2022-12-20T08:59:55.211Z,67.93
2022-12-20T09:01:06.670Z,67.54
2022-12-20T09:02:13.948Z,67.50
2022-12-20T09:03:20.077Z,67.20
2022-12-20T09:04:26.055Z,67.73
2022-12-20T09:05:32.066Z,67.31
2022-12-20T09:06:38.813Z,67.04
2022-12-20T09:07:45.597Z,66.51
2022-12-20T09:08:49.902Z,66.07
2022-12-20T09:09:55.895Z,66.07
2022-12-20T09:11:09.537Z,66.20
2022-12-20T09:12:13.109Z,66.93
2022-12-20T09:13:20.173Z,67.11
2022-12-20T09:14:26.128Z,67.16
2022-12-20T09:15:36.595Z,67.08
2022-12-20T09:16:42.602Z,66.99
2022-12-20T09:17:48.526Z,66.69
2022-12-20T09:19:00.742Z,67.16
2022-12-20T09:20:12.065Z,67.05
2022-12-20T09:21:22.019Z,66.75
2022-12-20T09:22:28.104Z,66.67
2022-12-20T09:23:33.091Z,66.88
2022-12-20T09:24:41.519Z,66.92
2022-12-20T09:25:50.226Z,67.19
2022-12-20T09:27:00.049Z,67.06
2022-12-20T09:28:06.178Z,67.40
2022-12-20T09:29:12.320Z,67.16
2022-12-20T09:30:19.740Z,67.18
2022-12-20T09:31:30.012Z,67.17
2022-12-20T09:32:33.676Z,67.35
2022-12-20T09:33:39.716Z,67.05
2022-12-20T09:34:43.203Z,67.60
2022-12-20T09:35:50.716Z,67.67
2022-12-20T09:36:54.191Z,67.15
2022-12-20T09:38:01.497Z,67.29
2022-12-20T09:39:07.798Z,66.96
2022-12-20T09:40:21.291Z,67.05
2022-12-20T09:41:37.450Z,67.30
2022-12-20T09:42:44.239Z,66.50
2022-12-20T09:43:48.148Z,66.90
2022-12-20T09:44:54.657Z,66.85
2022-12-20T09:46:04.960Z,66.54
2022-12-20T09:47:23.747Z,66.33
2022-12-20T09:48:36.802Z,67.00
2022-12-20T09:49:49.054Z,66.83
2022-12-20T09:51:15.830Z,66.61
2022-12-20T09:52:50.743Z,65.81
2022-12-20T09:54:18.517Z,64.85
2022-12-20T09:55:37.874Z,63.61
2022-12-20T09:57:04.580Z,63.86
2022-12-20T09:58:45.969Z,62.90
2022-12-20T09:59:52.210Z,61.80
2022-12-20T10:00:58.404Z,61.95
2022-12-20T10:02:19.487Z,61.58
2022-12-20T10:03:39.015Z,61.45
2022-12-20T10:04:45.539Z,60.90
2022-12-20T10:05:57.767Z,60.53
2022-12-20T10:07:39.253Z,59.63
2022-12-20T10:08:56.439Z,58.31
2022-12-20T10:10:35.766Z,59.72
2022-12-20T10:12:07.208Z,60.15
2022-12-20T10:13:49.657Z,60.59
2022-12-20T10:15:21.865Z,61.09
2022-12-20T10:16:48.021Z,61.39
2022-12-20T10:18:19.847Z,62.35
2022-12-20T10:20:08.742Z,63.67
2022-12-20T10:21:35.816Z,63.95
2022-12-20T10:22:55.643Z,64.04
2022-12-20T10:24:07.317Z,63.80
2022-12-20T10:25:23.513Z,63.87
2022-12-20T10:26:31.679Z,64.06
2022-12-20T10:27:39.001Z,63.98
2022-12-20T10:28:50.753Z,64.50
2022-12-20T10:30:00.913Z,64.45
2022-12-20T10:31:14.316Z,65.01
2022-12-20T10:32:29.333Z,65.05
2022-12-20T10:33:33.924Z,65.65
2022-12-20T10:34:48.473Z,64.93
2022-12-20T10:35:52.580Z,65.41
2022-12-20T10:37:16.898Z,65.21
2022-12-20T10:38:23.070Z,65.37
2022-12-20T10:39:46.202Z,65.19
2022-12-20T10:41:23.035Z,65.13
2022-12-20T10:42:43.496Z,65.94
2022-12-20T10:43:57.753Z,66.00
2022-12-20T10:45:02.804Z,65.81
2022-12-20T10:46:12.917Z,66.05
2022-12-20T10:47:40.930Z,65.96
2022-12-20T10:48:51.933Z,66.16
2022-12-20T10:50:18.174Z,66.82
2022-12-20T10:51:26.057Z,66.97
2022-12-20T10:52:29.736Z,66.80
2022-12-20T10:53:36.076Z,67.12
2022-12-20T10:54:46.528Z,67.12
2022-12-20T10:55:52.279Z,67.08
2022-12-20T10:57:02.402Z,67.36
2022-12-20T10:58:18.512Z,67.84
2022-12-20T10:59:39.888Z,67.60
2022-12-20T11:00:47.532Z,67.17
2022-12-20T11:01:52.263Z,67.31
2022-12-20T11:03:13.499Z,67.06
2022-12-20T11:04:32.568Z,66.47
2022-12-20T11:05:39.010Z,66.43
2022-12-20T11:06:48.658Z,66.64
2022-12-20T11:09:32.715Z,66.98
2022-12-20T11:10:36.545Z,67.07
2022-12-20T11:11:42.567Z,66.66
2022-12-20T11:12:56.938Z,66.45
2022-12-20T11:14:18.892Z,66.33
2022-12-20T11:15:34.176Z,65.66
2022-12-20T11:16:44.712Z,65.76
2022-12-20T11:17:53.761Z,65.57
2022-12-20T11:19:25.375Z,65.61
2022-12-20T11:20:48.490Z,65.15
2022-12-20T11:22:12.712Z,64.90
2022-12-20T11:23:38.864Z,64.41
2022-12-20T11:25:02.768Z,64.34
2022-12-20T11:26:39.430Z,63.84
2022-12-20T11:28:09.351Z,63.43
2022-12-20T11:29:50.723Z,63.75
2022-12-20T11:31:18.887Z,61.73
2022-12-20T11:32:53.324Z,59.96
2022-12-20T11:34:20.040Z,59.41
2022-12-20T11:35:42.078Z,59.18
2022-12-20T11:37:20.692Z,59.28
2022-12-20T11:38:45.670Z,59.38
2022-12-20T11:40:24.840Z,59.50
2022-12-20T11:41:47.813Z,59.87
2022-12-20T11:43:17.462Z,60.32
2022-12-20T11:44:55.357Z,60.53
2022-12-20T11:46:31.045Z,60.71
2022-12-20T11:48:10.071Z,60.46
2022-12-20T11:50:03.153Z,60.81
2022-12-20T11:51:27.169Z,60.65
2022-12-20T11:52:49.738Z,61.23
2022-12-20T11:54:13.791Z,61.05
2022-12-20T11:55:27.901Z,61.56
2022-12-20T11:56:44.770Z,61.87
2022-12-20T11:58:21.074Z,62.59
2022-12-20T11:59:40.676Z,63.04
2022-12-20T12:00:59.276Z,63.07
2022-12-20T12:02:16.167Z,63.33
2022-12-20T12:03:30.856Z,63.03
2022-12-20T12:04:47.072Z,63.84
2022-12-20T12:05:59.205Z,63.98
2022-12-20T12:07:16.641Z,64.42
2022-12-20T12:08:34.530Z,64.15
2022-12-20T12:09:51.278Z,64.65
2022-12-20T12:11:25.719Z,64.56
2022-12-20T12:12:45.669Z,64.89
2022-12-20T12:13:51.476Z,65.03
2022-12-20T12:15:14.317Z,65.11
2022-12-20T12:16:30.882Z,65.33
2022-12-20T12:17:50.361Z,65.31
2022-12-20T12:18:56.948Z,65.55
2022-12-20T12:20:29.925Z,65.45
2022-12-20T12:21:45.836Z,65.60
2022-12-20T12:23:01.713Z,65.68
2022-12-20T12:24:26.983Z,65.19
2022-12-20T12:25:30.436Z,65.08
2022-12-20T12:26:41.212Z,65.47
2022-12-20T12:27:48.724Z,65.15
2022-12-20T12:28:57.274Z,65.24
2022-12-20T12:30:03.447Z,65.46
2022-12-20T12:31:21.676Z,65.60
2022-12-20T12:32:44.134Z,65.83
2022-12-20T12:34:08.807Z,65.67
2022-12-20T12:35:56.292Z,65.42
2022-12-20T12:37:51.160Z,65.82
2022-12-20T12:39:49.530Z,65.90
2022-12-20T12:41:43.277Z,66.09
2022-12-20T12:43:39.083Z,66.02
2022-12-20T12:44:57.748Z,66.32
2022-12-20T12:46:14.675Z,66.18
2022-12-20T12:47:39.900Z,66.14
2022-12-20T12:48:57.698Z,66.35
2022-12-20T12:50:08.246Z,66.32
2022-12-20T12:51:22.227Z,66.18
2022-12-20T12:52:46.603Z,66.19
2022-12-20T12:53:56.934Z,66.07
2022-12-20T12:55:03.194Z,66.23
2022-12-20T12:56:45.475Z,66.24
2022-12-20T12:57:57.928Z,66.37
2022-12-20T12:59:54.729Z,66.08
2022-12-20T13:01:05.205Z,66.69
2022-12-20T13:02:37.546Z,66.45
2022-12-20T13:04:09.731Z,66.50
2022-12-20T13:05:38.675Z,66.84
2022-12-20T13:07:00.340Z,66.53
2022-12-20T13:08:17.712Z,66.88
2022-12-20T13:09:38.144Z,66.63
2022-12-20T13:11:06.199Z,66.96
2022-12-20T13:13:02.879Z,66.94
2022-12-20T13:14:30.895Z,67.23
2022-12-20T13:16:16.908Z,67.50
2022-12-20T13:17:53.073Z,67.78
2022-12-20T13:19:16.611Z,67.96
2022-12-20T13:20:24.541Z,68.19
2022-12-20T13:21:40.463Z,68.09
2022-12-20T13:23:17.987Z,67.89
2022-12-20T13:24:55.235Z,68.04
2022-12-20T13:25:58.887Z,68.12
2022-12-20T13:27:24.636Z,68.17
2022-12-20T13:28:49.631Z,68.30
2022-12-20T13:30:19.083Z,68.09
2022-12-20T13:31:36.972Z,68.48
2022-12-20T13:33:15.832Z,67.90
2022-12-20T13:34:41.553Z,68.08
2022-12-20T13:36:19.684Z,68.19
2022-12-20T13:37:57.361Z,68.62
2022-12-20T13:39:33.650Z,68.83
2022-12-20T13:40:45.616Z,68.76
2022-12-20T13:42:18.573Z,68.92
2022-12-20T13:43:37.225Z,68.80
2022-12-20T13:44:48.790Z,68.58
2022-12-20T13:46:06.242Z,68.61
2022-12-20T13:47:37.680Z,68.35
2022-12-20T13:48:54.207Z,68.78
2022-12-20T13:50:05.808Z,68.67
2022-12-20T13:51:10.683Z,69.19
2022-12-20T13:52:33.158Z,68.78
2022-12-20T13:53:42.436Z,68.77
2022-12-20T13:54:50.790Z,68.94
2022-12-20T13:55:59.236Z,69.43
2022-12-20T13:57:06.701Z,69.41
2022-12-20T13:58:25.166Z,69.66
2022-12-20T13:59:33.837Z,69.93
2022-12-20T14:00:41.520Z,69.99
2022-12-20T14:01:57.062Z,70.15
2022-12-20T14:03:03.695Z,69.91
2022-12-20T14:04:10.959Z,70.19
2022-12-20T14:05:26.728Z,70.27
2022-12-20T14:06:33.186Z,70.58
2022-12-20T14:07:41.992Z,70.41
2022-12-20T14:08:52.187Z,70.45
2022-12-20T14:10:02.968Z,70.09
2022-12-20T14:11:16.047Z,70.61
2022-12-20T14:12:27.380Z,70.78
2022-12-20T14:13:39.678Z,70.58
2022-12-20T14:14:49.999Z,70.85
2022-12-20T14:15:58.646Z,70.53
2022-12-20T14:17:19.848Z,70.63
2022-12-20T14:18:29.049Z,70.90
2022-12-20T14:19:33.351Z,70.99
2022-12-20T14:20:42.408Z,70.89
2022-12-20T14:21:50.594Z,71.16
2022-12-20T14:23:06.439Z,71.07
2022-12-20T14:24:21.701Z,71.09
2022-12-20T14:25:38.706Z,71.25
2022-12-20T14:26:48.649Z,71.37
2022-12-20T14:27:52.295Z,71.64
2022-12-20T14:29:07.981Z,71.81
2022-12-20T14:30:35.004Z,72.18
2022-12-20T14:31:46.666Z,72.31
2022-12-20T14:32:50.967Z,71.83
2022-12-20T14:34:10.711Z,71.82
2022-12-20T14:35:21.564Z,72.13
2022-12-20T14:36:27.611Z,71.72
2022-12-20T14:37:36.474Z,72.05
2022-12-20T14:38:45.382Z,71.89
2022-12-20T14:40:19.586Z,72.05
2022-12-20T14:41:39.277Z,71.79
2022-12-20T14:42:46.644Z,71.98
2022-12-20T14:44:07.132Z,71.99
2022-12-20T14:45:21.162Z,71.77
2022-12-20T14:46:27.520Z,71.99
2022-12-20T14:47:34.533Z,71.96
2022-12-20T14:48:41.502Z,72.07
2022-12-20T14:49:55.463Z,72.13
2022-12-20T14:51:01.604Z,72.03
2022-12-20T14:52:20.928Z,72.26
2022-12-20T14:53:30.694Z,72.60
2022-12-20T14:56:26.433Z,72.65
2022-12-20T14:57:48.999Z,72.37
2022-12-20T14:59:17.532Z,72.91
2022-12-20T15:00:28.684Z,72.83
2022-12-20T15:01:35.837Z,72.86
2022-12-20T15:02:55.474Z,72.79
2022-12-20T15:04:01.010Z,73.14
2022-12-20T15:05:27.658Z,72.83
2022-12-20T15:06:46.045Z,73.13
2022-12-20T15:07:49.565Z,73.28
2022-12-20T15:08:55.545Z,73.20
2022-12-20T15:10:01.941Z,73.17
2022-12-20T15:11:24.588Z,73.33
2022-12-20T15:12:32.652Z,73.29
2022-12-20T15:13:45.736Z,73.30
2022-12-20T15:14:54.862Z,73.07
2022-12-20T15:16:04.817Z,72.92
2022-12-20T15:17:15.927Z,73.02
2022-12-20T15:18:24.832Z,73.09
2022-12-20T15:19:31.630Z,72.85
2022-12-20T15:20:35.523Z,72.66
2022-12-20T15:21:45.986Z,72.62
2022-12-20T15:22:49.462Z,72.17
2022-12-20T15:24:00.123Z,72.18
2022-12-20T15:25:12.194Z,72.55
2022-12-20T15:26:20.945Z,72.46
2022-12-20T15:27:27.382Z,72.53
2022-12-20T15:28:33.502Z,72.55
2022-12-20T15:29:40.598Z,72.45
2022-12-20T15:30:51.309Z,72.31
2022-12-20T15:32:10.510Z,72.70
2022-12-20T15:33:23.065Z,72.90